Warrior — WDI2675 — position and weather

sailwx.info

Track history (hours):
 
Tides and Currents Weather Stations Pressure Air Temp Water Temp Dewpoint Dewpoint Depression Visibility Wind Speed Wind Dir Waves Ship Positions

Warrior

Owner: Versaggi Shrimp Corp, Tampa, FL. More information available from US FCC via Universal Licensing System and Coast Guard Vessel Documentation Center.

Last reported at 2017-Sep-22 00:30 UTC. Time now 2017-Sep-22 00:36 UTC.
Position N 27°56' W 082°26'.

MMSI: 367680570.

Date/timePositionNaut miles runAvg speedWind from/ knotsBaromVisibWave heightAir tempDewpointWater temp
2017-Sep-22 00:30N 27°56' W 082°26'0 0.0
2017-Sep-22 00:00N 27°56' W 082°26'0 0.0
2017-Sep-21 23:30N 27°56' W 082°26'0 0.0
2017-Sep-21 23:00N 27°56' W 082°26'0 0.0
2017-Sep-21 22:30N 27°56' W 082°26'0 0.0
2017-Sep-21 22:00N 27°56' W 082°26'0 0.0
2017-Sep-21 21:30N 27°56' W 082°26'0 0.0
2017-Sep-21 21:00N 27°56' W 082°26'0 0.0
2017-Sep-21 20:30N 27°56' W 082°26'0 0.0
2017-Sep-21 20:00N 27°56' W 082°26'0 0.0
2017-Sep-21 19:30N 27°56' W 082°26'0 0.0
2017-Sep-21 19:00N 27°56' W 082°26'0 0.0
2017-Sep-21 18:30N 27°56' W 082°26'0 0.0
2017-Sep-21 18:00N 27°56' W 082°26'0 0.0
2017-Sep-21 17:30N 27°56' W 082°26'0 0.0
2017-Sep-21 17:00N 27°56' W 082°26'0 0.0
2017-Sep-21 16:30N 27°56' W 082°26'0 0.0
2017-Sep-21 16:00N 27°56' W 082°26'1 1.6
2017-Sep-21 15:30N 27°55' W 082°26'4 8.1
2017-Sep-21 14:59N 27°51' W 082°27'7 7.6
2017-Sep-21 14:05N 27°45' W 082°31'  
2017-Sep-14 21:47N 27°47' W 082°30'2 7.4
2017-Sep-14 21:28N 27°48' W 082°27'3 7.2
2017-Sep-14 21:00N 27°52' W 082°27'4 7.3
2017-Sep-14 20:30N 27°55' W 082°26'0 0.8
2017-Sep-14 20:00N 27°56' W 082°26'0 0.0
2017-Sep-14 19:30N 27°56' W 082°26'0 0.0
2017-Sep-14 19:00N 27°56' W 082°26'0 0.0
2017-Sep-14 18:30N 27°56' W 082°26'0 0.1
2017-Sep-14 18:00N 27°56' W 082°26'0 0.0
2017-Sep-14 17:30N 27°56' W 082°26'0 0.0
2017-Sep-14 17:00N 27°56' W 082°26'0 0.0
2017-Sep-14 16:30N 27°56' W 082°26'0 0.0
2017-Sep-14 16:00N 27°56' W 082°26'0 0.0
2017-Sep-14 15:30N 27°56' W 082°26'0 0.0
2017-Sep-14 15:00N 27°56' W 082°26'0 0.0
2017-Sep-14 14:30N 27°56' W 082°26'0 0.0
2017-Sep-14 14:00N 27°56' W 082°26'0 0.0
2017-Sep-14 13:30N 27°56' W 082°26'0 0.0
2017-Sep-14 13:00N 27°56' W 082°26'0 0.0
2017-Sep-14 12:30N 27°56' W 082°26'0 0.0
2017-Sep-14 12:00N 27°56' W 082°26'0 0.0
2017-Sep-14 11:30N 27°56' W 082°26'0 0.0
2017-Sep-14 11:00N 27°56' W 082°26'0 0.0
2017-Sep-14 10:30N 27°56' W 082°26'0 0.0
2017-Sep-14 10:00N 27°56' W 082°26'0 0.0
2017-Sep-14 09:30N 27°56' W 082°26'0 0.0
2017-Sep-14 09:00N 27°56' W 082°26'0 0.0
2017-Sep-14 08:30N 27°56' W 082°26'0 0.0
2017-Sep-14 08:00N 27°56' W 082°26'0 0.0
2017-Sep-14 07:30N 27°56' W 082°26'0 0.0
2017-Sep-14 07:00N 27°56' W 082°26'0 0.0
2017-Sep-14 06:30N 27°56' W 082°26'0 0.0
2017-Sep-14 06:00N 27°56' W 082°26'0 0.0
2017-Sep-14 05:30N 27°56' W 082°26'0 0.0
2017-Sep-14 05:00N 27°56' W 082°26'0 0.0
2017-Sep-14 04:30N 27°56' W 082°26'0 0.0
2017-Sep-14 04:00N 27°56' W 082°26'0 0.0
2017-Sep-14 03:30N 27°56' W 082°26'0 0.0
2017-Sep-14 03:00N 27°56' W 082°26'0 0.0
2017-Sep-14 02:30N 27°56' W 082°26'0 0.0
2017-Sep-14 02:00N 27°56' W 082°26'0 0.0
2017-Sep-14 01:30N 27°56' W 082°26'0 0.0
2017-Sep-14 01:00N 27°56' W 082°26'0 0.0
2017-Sep-14 00:30N 27°56' W 082°26'0 0.0
2017-Sep-14 00:00N 27°56' W 082°26'0 0.0
2017-Sep-13 23:30N 27°56' W 082°26'0 0.0
2017-Sep-13 23:00N 27°56' W 082°26'0 0.0
2017-Sep-13 22:30N 27°56' W 082°26'0 0.0
2017-Sep-13 22:00N 27°56' W 082°26'0 0.0
2017-Sep-13 21:30N 27°56' W 082°26'0 0.0
2017-Sep-13 21:00N 27°56' W 082°26'0 0.0
2017-Sep-13 20:30N 27°56' W 082°26'0 0.0
2017-Sep-13 20:00N 27°56' W 082°26'0 0.0
2017-Sep-13 19:30N 27°56' W 082°26'0 0.0
2017-Sep-13 19:00N 27°56' W 082°26'0 0.0
2017-Sep-13 18:30N 27°56' W 082°26'0 0.0
2017-Sep-13 18:00N 27°56' W 082°26'0 0.0
2017-Sep-13 17:30N 27°56' W 082°26'0 0.0
2017-Sep-13 17:00N 27°56' W 082°26'0 0.0
2017-Sep-13 16:30N 27°56' W 082°26'0 0.0
2017-Sep-13 16:00N 27°56' W 082°26'0 0.0
2017-Sep-13 15:30N 27°56' W 082°26'0 0.0
2017-Sep-13 15:00N 27°56' W 082°26'0 0.0
2017-Sep-13 14:30N 27°56' W 082°26'0 0.0
2017-Sep-13 14:00N 27°56' W 082°26'0 0.0
2017-Sep-13 13:30N 27°56' W 082°26'0 0.0
2017-Sep-13 13:00N 27°56' W 082°26'0 0.0
2017-Sep-13 12:30N 27°56' W 082°26'0 0.0
2017-Sep-13 12:00N 27°56' W 082°26'0 0.0
2017-Sep-13 11:30N 27°56' W 082°26'0 0.0
2017-Sep-13 11:00N 27°56' W 082°26'0 0.0
2017-Sep-13 10:30N 27°56' W 082°26'0 0.0
2017-Sep-13 10:00N 27°56' W 082°26'0 0.0
2017-Sep-13 09:30N 27°56' W 082°26'0 0.0
2017-Sep-13 09:00N 27°56' W 082°26'0 0.0
2017-Sep-13 08:30N 27°56' W 082°26'0 0.0
2017-Sep-13 08:00N 27°56' W 082°26'0 0.0
2017-Sep-13 07:30N 27°56' W 082°26'0 0.0
2017-Sep-13 07:00N 27°56' W 082°26'0 0.0
2017-Sep-13 06:30N 27°56' W 082°26'0 0.0
2017-Sep-13 06:00N 27°56' W 082°26'0 0.0
2017-Sep-13 05:30N 27°56' W 082°26'0 0.0
2017-Sep-13 05:00N 27°56' W 082°26'0 0.0
2017-Sep-13 04:30N 27°56' W 082°26'0 0.0
2017-Sep-13 04:00N 27°56' W 082°26'0 0.0
2017-Sep-13 03:30N 27°56' W 082°26'0 0.0
2017-Sep-13 03:00N 27°56' W 082°26'0 0.0
2017-Sep-13 02:30N 27°56' W 082°26'0 0.0
2017-Sep-13 02:00N 27°56' W 082°26'0 0.0
2017-Sep-13 01:30N 27°56' W 082°26'0 0.0
2017-Sep-13 01:00N 27°56' W 082°26'0 0.0
2017-Sep-13 00:30N 27°56' W 082°26'0 0.0
2017-Sep-13 00:00N 27°56' W 082°26'0 0.0
2017-Sep-12 23:30N 27°56' W 082°26'0 0.0
2017-Sep-12 23:00N 27°56' W 082°26'0 0.0
2017-Sep-12 22:30N 27°56' W 082°26'0 0.0
2017-Sep-12 22:00N 27°56' W 082°26'0 0.0
2017-Sep-12 21:30N 27°56' W 082°26'0 0.0
2017-Sep-12 21:00N 27°56' W 082°26'0 0.0
2017-Sep-12 20:30N 27°56' W 082°26'0 0.0
2017-Sep-12 20:00N 27°56' W 082°26'0 0.0
2017-Sep-12 19:30N 27°56' W 082°26'0 0.0
2017-Sep-12 19:00N 27°56' W 082°26'0 0.0
2017-Sep-12 18:30N 27°56' W 082°26'0 0.0
2017-Sep-12 18:00N 27°56' W 082°26'0 0.0
2017-Sep-12 17:30N 27°56' W 082°26'0 0.0
2017-Sep-12 13:26N 27°56' W 082°26'0 0.0
2017-Sep-12 13:00N 27°56' W 082°26'  
Track history (hours):
 
Tides and Currents Weather Stations Pressure Air Temp Water Temp Dewpoint Dewpoint Depression Visibility Wind Speed Wind Dir Waves Ship Positions

Warrior

Owner: Versaggi Shrimp Corp, Tampa, FL. More information available from US FCC via Universal Licensing System and Coast Guard Vessel Documentation Center.

Last reported at 2017-Sep-22 00:30 UTC. Time now 2017-Sep-22 00:37 UTC.
Position N 27°56' W 082°26'.

MMSI: 367680570.

Date/timePositionNaut miles runAvg speedWind from/ knotsBaromVisibWave heightAir tempDewpointWater temp
2017-Sep-22 00:30N 27°56' W 082°26'0 0.0
2017-Sep-22 00:00N 27°56' W 082°26'0 0.0
2017-Sep-21 23:30N 27°56' W 082°26'0 0.0
2017-Sep-21 23:00N 27°56' W 082°26'0 0.0
2017-Sep-21 22:30N 27°56' W 082°26'0 0.0
2017-Sep-21 22:00N 27°56' W 082°26'0 0.0
2017-Sep-21 21:30N 27°56' W 082°26'0 0.0
2017-Sep-21 21:00N 27°56' W 082°26'0 0.0
2017-Sep-21 20:30N 27°56' W 082°26'0 0.0
2017-Sep-21 20:00N 27°56' W 082°26'0 0.0
2017-Sep-21 19:30N 27°56' W 082°26'0 0.0
2017-Sep-21 19:00N 27°56' W 082°26'0 0.0
2017-Sep-21 18:30N 27°56' W 082°26'0 0.0
2017-Sep-21 18:00N 27°56' W 082°26'0 0.0
2017-Sep-21 17:30N 27°56' W 082°26'0 0.0
2017-Sep-21 17:00N 27°56' W 082°26'0 0.0
2017-Sep-21 16:30N 27°56' W 082°26'0 0.0
2017-Sep-21 16:00N 27°56' W 082°26'1 1.6
2017-Sep-21 15:30N 27°55' W 082°26'4 8.1
2017-Sep-21 14:59N 27°51' W 082°27'7 7.6
2017-Sep-21 14:05N 27°45' W 082°31'  
2017-Sep-14 21:47N 27°47' W 082°30'2 7.4
2017-Sep-14 21:28N 27°48' W 082°27'3 7.2
2017-Sep-14 21:00N 27°52' W 082°27'4 7.3
2017-Sep-14 20:30N 27°55' W 082°26'0 0.8
2017-Sep-14 20:00N 27°56' W 082°26'0 0.0
2017-Sep-14 19:30N 27°56' W 082°26'0 0.0
2017-Sep-14 19:00N 27°56' W 082°26'0 0.0
2017-Sep-14 18:30N 27°56' W 082°26'0 0.1
2017-Sep-14 18:00N 27°56' W 082°26'0 0.0
2017-Sep-14 17:30N 27°56' W 082°26'0 0.0
2017-Sep-14 17:00N 27°56' W 082°26'0 0.0
2017-Sep-14 16:30N 27°56' W 082°26'0 0.0
2017-Sep-14 16:00N 27°56' W 082°26'0 0.0
2017-Sep-14 15:30N 27°56' W 082°26'0 0.0
2017-Sep-14 15:00N 27°56' W 082°26'0 0.0
2017-Sep-14 14:30N 27°56' W 082°26'0 0.0
2017-Sep-14 14:00N 27°56' W 082°26'0 0.0
2017-Sep-14 13:30N 27°56' W 082°26'0 0.0
2017-Sep-14 13:00N 27°56' W 082°26'0 0.0
2017-Sep-14 12:30N 27°56' W 082°26'0 0.0
2017-Sep-14 12:00N 27°56' W 082°26'0 0.0
2017-Sep-14 11:30N 27°56' W 082°26'0 0.0
2017-Sep-14 11:00N 27°56' W 082°26'0 0.0
2017-Sep-14 10:30N 27°56' W 082°26'0 0.0
2017-Sep-14 10:00N 27°56' W 082°26'0 0.0
2017-Sep-14 09:30N 27°56' W 082°26'0 0.0
2017-Sep-14 09:00N 27°56' W 082°26'0 0.0
2017-Sep-14 08:30N 27°56' W 082°26'0 0.0
2017-Sep-14 08:00N 27°56' W 082°26'0 0.0
2017-Sep-14 07:30N 27°56' W 082°26'0 0.0
2017-Sep-14 07:00N 27°56' W 082°26'0 0.0
2017-Sep-14 06:30N 27°56' W 082°26'0 0.0
2017-Sep-14 06:00N 27°56' W 082°26'0 0.0
2017-Sep-14 05:30N 27°56' W 082°26'0 0.0
2017-Sep-14 05:00N 27°56' W 082°26'0 0.0
2017-Sep-14 04:30N 27°56' W 082°26'0 0.0
2017-Sep-14 04:00N 27°56' W 082°26'0 0.0
2017-Sep-14 03:30N 27°56' W 082°26'0 0.0
2017-Sep-14 03:00N 27°56' W 082°26'0 0.0
2017-Sep-14 02:30N 27°56' W 082°26'0 0.0
2017-Sep-14 02:00N 27°56' W 082°26'0 0.0
2017-Sep-14 01:30N 27°56' W 082°26'0 0.0
2017-Sep-14 01:00N 27°56' W 082°26'0 0.0
2017-Sep-14 00:30N 27°56' W 082°26'0 0.0
2017-Sep-14 00:00N 27°56' W 082°26'0 0.0
2017-Sep-13 23:30N 27°56' W 082°26'0 0.0
2017-Sep-13 23:00N 27°56' W 082°26'0 0.0
2017-Sep-13 22:30N 27°56' W 082°26'0 0.0
2017-Sep-13 22:00N 27°56' W 082°26'0 0.0
2017-Sep-13 21:30N 27°56' W 082°26'0 0.0
2017-Sep-13 21:00N 27°56' W 082°26'0 0.0
2017-Sep-13 20:30N 27°56' W 082°26'0 0.0
2017-Sep-13 20:00N 27°56' W 082°26'0 0.0
2017-Sep-13 19:30N 27°56' W 082°26'0 0.0
2017-Sep-13 19:00N 27°56' W 082°26'0 0.0
2017-Sep-13 18:30N 27°56' W 082°26'0 0.0
2017-Sep-13 18:00N 27°56' W 082°26'0 0.0
2017-Sep-13 17:30N 27°56' W 082°26'0 0.0
2017-Sep-13 17:00N 27°56' W 082°26'0 0.0
2017-Sep-13 16:30N 27°56' W 082°26'0 0.0
2017-Sep-13 16:00N 27°56' W 082°26'0 0.0
2017-Sep-13 15:30N 27°56' W 082°26'0 0.0
2017-Sep-13 15:00N 27°56' W 082°26'0 0.0
2017-Sep-13 14:30N 27°56' W 082°26'0 0.0
2017-Sep-13 14:00N 27°56' W 082°26'0 0.0
2017-Sep-13 13:30N 27°56' W 082°26'0 0.0
2017-Sep-13 13:00N 27°56' W 082°26'0 0.0
2017-Sep-13 12:30N 27°56' W 082°26'0 0.0
2017-Sep-13 12:00N 27°56' W 082°26'0 0.0
2017-Sep-13 11:30N 27°56' W 082°26'0 0.0
2017-Sep-13 11:00N 27°56' W 082°26'0 0.0
2017-Sep-13 10:30N 27°56' W 082°26'0 0.0
2017-Sep-13 10:00N 27°56' W 082°26'0 0.0
2017-Sep-13 09:30N 27°56' W 082°26'0 0.0
2017-Sep-13 09:00N 27°56' W 082°26'0 0.0
2017-Sep-13 08:30N 27°56' W 082°26'0 0.0
2017-Sep-13 08:00N 27°56' W 082°26'0 0.0
2017-Sep-13 07:30N 27°56' W 082°26'0 0.0
2017-Sep-13 07:00N 27°56' W 082°26'0 0.0
2017-Sep-13 06:30N 27°56' W 082°26'0 0.0
2017-Sep-13 06:00N 27°56' W 082°26'0 0.0
2017-Sep-13 05:30N 27°56' W 082°26'0 0.0
2017-Sep-13 05:00N 27°56' W 082°26'0 0.0
2017-Sep-13 04:30N 27°56' W 082°26'0 0.0
2017-Sep-13 04:00N 27°56' W 082°26'0 0.0
2017-Sep-13 03:30N 27°56' W 082°26'0 0.0
2017-Sep-13 03:00N 27°56' W 082°26'0 0.0
2017-Sep-13 02:30N 27°56' W 082°26'0 0.0
2017-Sep-13 02:00N 27°56' W 082°26'0 0.0
2017-Sep-13 01:30N 27°56' W 082°26'0 0.0
2017-Sep-13 01:00N 27°56' W 082°26'0 0.0
2017-Sep-13 00:30N 27°56' W 082°26'0 0.0
2017-Sep-13 00:00N 27°56' W 082°26'0 0.0
2017-Sep-12 23:30N 27°56' W 082°26'0 0.0
2017-Sep-12 23:00N 27°56' W 082°26'0 0.0
2017-Sep-12 22:30N 27°56' W 082°26'0 0.0
2017-Sep-12 22:00N 27°56' W 082°26'0 0.0
2017-Sep-12 21:30N 27°56' W 082°26'0 0.0
2017-Sep-12 21:00N 27°56' W 082°26'0 0.0
2017-Sep-12 20:30N 27°56' W 082°26'0 0.0
2017-Sep-12 20:00N 27°56' W 082°26'0 0.0
2017-Sep-12 19:30N 27°56' W 082°26'0 0.0
2017-Sep-12 19:00N 27°56' W 082°26'0 0.0
2017-Sep-12 18:30N 27°56' W 082°26'0 0.0
2017-Sep-12 18:00N 27°56' W 082°26'0 0.0
2017-Sep-12 17:30N 27°56' W 082°26'0 0.0
2017-Sep-12 13:26N 27°56' W 082°26'0 0.0
2017-Sep-12 13:00N 27°56' W 082°26'  

Dump ship's entire track history